メインページ
METAR-TAF:

METAR-TAF

空港 :

アデレード空港

アデレード, オーストラリア

緯度: 34-56S, 経度: 138-31E, 海抜: 6m

現時点の気象観測

当レポートは12分前の21:00(UTC)に作成
無風
気温 14°C
湿度 77%
気圧 1030 hPa
視程10km以上
高度4200ftの曇り

METAR: YPAD 222100Z 00000KT 9999 OVC042 14/10 Q1030 NOSIG

時間: 06:42 (21:12 UTC)

予報

当レポートは3時間53分前の17:19(UTC)に作成
予報は22日の 18時(UTC)から 23日の 24時(UTC)まで有効
南/南東の風 5kt
視程10km以上
高度2000ftの雲は散在している
高度3000ftの千切れ雲あり
23日の 0000時(UTC)から
西/南西の風 8kt
視程10km以上
高度3000ftの千切れ雲あり
弱いにわか雨
23日の 0900時(UTC)から
南東の風 5kt
視程10km以上
高度2000ftの雲はほとんどない
高度3000ftの千切れ雲あり

TAF: YPAD 221719Z 2218/2324 15005KT 9999 SCT020 BKN030 FM230000 24008KT 9999 -SHRA BKN030 FM230900 13005KT 9999 FEW020 BKN030

4,000以上の空港の気象観測と天気予報(METAR報とTAF報)

利用可能な観測所は地図上に黄色い丸と赤い丸で示す。

丸の上にカーソルを重ねると観測所名を参照できる。

次にクリックすると気象観測と天気予報を参照できる。

マップの切り替え:黒色「×」印の緑ボタンをクリックして拡大、「-」印の緑ボタンをクリックして縮小、緑色の三角印をクリックして隣りの地図に切り替え


METAR-TAF: